Time;durP1;ratioP1;P1;durP2;ratioP2;P2;SDS_P1;SDS_P2;PMS_P1;PMS_P2;Temp;Humidity;BMP_temperature;BMP_pressure;BME280_temperature;BME280_humidity;BME280_pressure;Samples;Min_cycle;Max_cycle;Signal;HPM_P1;HPM_P2
2021/09/17 00:04:28;;;;;;;116.40;30.10;;;;;;;17.56;91.23;98280.86;235779;1198;25197;-74
2021/09/17 00:09:31;;;;;;;83.30;25.50;;;;;;;17.37;90.56;98279.13;235726;1190;24086;-72
2021/09/17 00:14:50;;;;;;;84.70;24.80;;;;;;;17.09;90.10;98284.54;235873;1197;25426;-73
2021/09/17 00:19:53;;;;;;;88.20;25.10;;;;;;;16.82;90.04;98283.44;235747;1198;24029;-72
2021/09/17 00:24:56;;;;;;;74.60;23.00;;;;;;;16.63;90.45;98287.20;235709;1198;24351;-73
2021/09/17 00:30:04;;;;;;;56.60;19.10;;;;;;;16.44;90.42;98284.07;235706;1198;22473;-72
2021/09/17 00:35:09;;;;;;;73.00;21.60;;;;;;;16.26;90.38;98289.05;235588;1198;25283;-70
2021/09/17 00:40:12;;;;;;;67.50;20.40;;;;;;;16.02;90.50;98281.66;236062;1190;22457;-72
2021/09/17 00:45:15;;;;;;;60.00;20.20;;;;;;;15.82;90.93;98281.71;235874;1184;25290;-74
2021/09/17 00:50:22;;;;;;;74.30;22.30;;;;;;;15.66;91.31;98277.92;235876;1198;22502;-75
2021/09/17 00:55:24;;;;;;;58.30;19.20;;;;;;;15.56;91.74;98277.96;235896;1198;22521;-76
2021/09/17 01:00:27;;;;;;;60.30;21.00;;;;;;;15.41;91.85;98272.59;235906;1191;24943;-76
2021/09/17 01:05:30;;;;;;;48.70;18.20;;;;;;;15.28;92.36;98269.98;235858;1183;24088;-77
2021/09/17 01:10:33;;;;;;;44.10;18.60;;;;;;;15.17;92.59;98267.98;235710;1197;24051;-79
2021/09/17 01:15:37;;;;;;;28.70;8.30;;;;;;;15.07;92.80;98261.60;235956;1197;25242;-80
2021/09/17 01:20:40;;;;;;;34.10;8.20;;;;;;;14.95;92.77;98265.79;235909;1194;22460;-76
2021/09/17 01:25:43;;;;;;;25.40;8.00;;;;;;;14.80;92.70;98256.06;236110;1190;24057;-77
2021/09/17 01:30:45;;;;;;;21.70;6.70;;;;;;;14.67;92.93;98256.29;235877;1198;24038;-75
2021/09/17 01:35:59;;;;;;;23.80;6.70;;;;;;;14.59;93.11;98251.58;235938;1198;24082;-76
2021/09/17 01:41:02;;;;;;;29.60;7.70;;;;;;;14.54;93.50;98252.40;236033;1190;24164;-77
2021/09/17 01:46:05;;;;;;;26.00;6.60;;;;;;;14.50;93.81;98243.18;235999;1198;22499;-78
2021/09/17 01:51:08;;;;;;;29.40;7.80;;;;;;;14.51;93.97;98245.42;235636;1198;22551;-78
2021/09/17 01:56:11;;;;;;;29.20;6.50;;;;;;;14.54;94.15;98240.98;235810;1198;25219;-79
2021/09/17 02:01:14;;;;;;;29.80;7.00;;;;;;;14.56;94.39;98235.91;236048;1192;22436;-79
2021/09/17 02:06:20;;;;;;;18.20;6.40;;;;;;;14.59;94.38;98230.02;236426;1190;24045;-79
2021/09/17 02:11:24;;;;;;;17.80;5.30;;;;;;;14.62;94.35;98224.49;236703;1197;25195;-77
2021/09/17 02:16:29;;;;;;;18.80;5.10;;;;;;;14.62;94.39;98220.38;236667;1197;25296;-78
2021/09/17 02:21:33;;;;;;;15.40;5.00;;;;;;;14.62;94.45;98220.98;237634;1197;22454;-80
2021/09/17 02:26:43;;;;;;;11.80;4.40;;;;;;;14.60;94.35;98222.02;238160;1197;22448;-80
2021/09/17 02:31:47;;;;;;;12.90;4.50;;;;;;;14.56;94.43;98215.90;238362;1198;24294;-83
2021/09/17 02:36:50;;;;;;;16.70;5.50;;;;;;;14.51;94.35;98215.33;238690;1190;22440;-82
2021/09/17 02:41:53;;;;;;;13.10;4.30;;;;;;;14.46;94.37;98211.27;238271;1198;23518;-81
2021/09/17 02:46:57;;;;;;;10.50;4.60;;;;;;;14.42;94.24;98207.81;237022;1198;22441;-79
2021/09/17 02:52:21;;;;;;;14.60;5.10;;;;;;;14.39;94.23;98204.16;237198;1198;22560;-78
2021/09/17 02:57:24;;;;;;;9.00;4.10;;;;;;;14.35;94.41;98209.83;237031;1197;24074;-80
2021/09/17 03:02:29;;;;;;;15.50;5.40;;;;;;;14.33;94.47;98208.86;237865;1197;22459;-81
2021/09/17 03:07:32;;;;;;;10.80;4.20;;;;;;;14.32;94.53;98210.75;237499;1189;22596;-81
2021/09/17 03:12:34;;;;;;;17.90;4.90;;;;;;;14.32;94.54;98208.52;237510;1189;22461;-82
2021/09/17 03:17:39;;;;;;;16.00;4.50;;;;;;;14.31;94.69;98208.16;238444;1197;24066;-80
2021/09/17 03:22:41;;;;;;;10.90;4.20;;;;;;;14.28;94.66;98204.60;237934;1197;24088;-82
2021/09/17 03:27:44;;;;;;;9.80;3.20;;;;;;;14.23;94.58;98208.50;238628;1197;26104;-81
2021/09/17 03:32:47;;;;;;;8.00;3.70;;;;;;;14.18;94.67;98207.99;238459;1196;23485;-81
2021/09/17 03:37:51;;;;;;;11.80;3.80;;;;;;;14.13;94.69;98208.42;238720;1197;22542;-82
2021/09/17 03:42:53;;;;;;;16.70;4.00;;;;;;;14.07;94.88;98204.35;239220;1190;22528;-81
2021/09/17 03:47:56;;;;;;;10.60;4.20;;;;;;;14.03;94.90;98206.52;239542;1197;24062;-82
2021/09/17 03:52:59;;;;;;;7.30;3.20;;;;;;;13.99;94.80;98209.17;239359;1190;24067;-83
2021/09/17 03:58:03;;;;;;;7.90;3.30;;;;;;;13.92;94.81;98209.20;239388;1197;24110;-82
2021/09/17 04:03:06;;;;;;;9.10;3.20;;;;;;;13.85;94.76;98207.65;239498;1197;22620;-83
2021/09/17 04:08:08;;;;;;;10.20;3.80;;;;;;;13.83;94.84;98215.23;239624;1192;25154;-82
2021/09/17 04:13:11;;;;;;;10.30;3.10;;;;;;;13.80;94.95;98215.49;239364;1197;22778;-82
2021/09/17 04:18:15;;;;;;;8.70;3.70;;;;;;;13.77;94.88;98221.48;239131;1197;22444;-84
2021/09/17 04:23:21;;;;;;;11.30;3.70;;;;;;;13.77;95.00;98220.86;239138;1197;22446;-83
2021/09/17 04:28:43;;;;;;;7.90;3.00;;;;;;;13.74;94.98;98232.33;238933;1196;23105;-84
2021/09/17 04:33:47;;;;;;;10.00;3.40;;;;;;;13.71;95.10;98235.08;239202;1197;22655;-83
2021/09/17 04:38:53;;;;;;;11.60;3.50;;;;;;;13.69;95.07;98236.38;239595;1197;22860;-83
2021/09/17 04:43:56;;;;;;;10.50;3.30;;;;;;;13.66;95.03;98235.79;239711;1196;24018;-82
2021/09/17 04:48:59;;;;;;;9.90;2.50;;;;;;;13.63;95.09;98233.05;239514;1197;22682;-83
2021/09/17 04:54:01;;;;;;;9.30;3.80;;;;;;;13.60;95.07;98234.40;239052;1197;22447;-83
2021/09/17 04:59:11;;;;;;;9.50;3.60;;;;;;;13.59;95.20;98237.89;238874;1197;22497;-85
2021/09/17 05:04:14;;;;;;;8.70;2.60;;;;;;;13.57;95.10;98246.27;239033;1198;22498;-83
2021/09/17 05:09:17;;;;;;;10.40;2.80;;;;;;;13.55;95.21;98255.04;239154;1196;24042;-84
2021/09/17 05:14:20;;;;;;;7.50;3.30;;;;;;;13.56;95.35;98253.20;239347;1197;22475;-82
2021/09/17 05:19:25;;;;;;;9.10;3.50;;;;;;;13.57;95.37;98256.86;239351;1197;22548;-82
2021/09/17 05:24:30;;;;;;;9.30;3.10;;;;;;;13.59;95.38;98259.92;239650;1191;22720;-83
2021/09/17 05:29:33;;;;;;;7.80;2.90;;;;;;;13.56;95.22;98260.51;239616;1197;22427;-86
2021/09/17 05:34:36;;;;;;;11.40;3.10;;;;;;;13.53;95.29;98261.02;239242;1192;22448;-83
2021/09/17 05:39:38;;;;;;;7.20;2.60;;;;;;;13.53;95.32;98266.30;238655;1190;22430;-84
2021/09/17 05:44:42;;;;;;;6.40;3.20;;;;;;;13.52;95.23;98268.27;239282;1196;24027;-82
2021/09/17 05:49:44;;;;;;;7.90;2.90;;;;;;;13.51;95.21;98268.25;239211;1197;24021;-82
2021/09/17 05:54:47;;;;;;;6.40;2.20;;;;;;;13.52;95.39;98268.05;239249;1197;22802;-82
2021/09/17 05:59:50;;;;;;;8.40;2.70;;;;;;;13.52;95.24;98267.35;239370;1197;22449;-81
2021/09/17 06:04:52;;;;;;;6.20;2.50;;;;;;;13.53;95.39;98267.79;240288;1190;22436;-81
2021/09/17 06:09:55;;;;;;;8.80;2.20;;;;;;;13.53;95.32;98267.79;239698;1196;22532;-81
2021/09/17 06:14:58;;;;;;;4.50;1.60;;;;;;;13.54;95.43;98266.36;239370;1190;22466;-81
2021/09/17 06:20:09;;;;;;;7.60;2.20;;;;;;;13.51;95.21;98264.19;239214;1196;22513;-82
2021/09/17 06:25:17;;;;;;;5.80;2.30;;;;;;;13.52;95.35;98264.36;238661;1190;22517;-80
2021/09/17 06:30:20;;;;;;;4.60;2.00;;;;;;;13.55;95.48;98264.30;238199;1197;22513;-80
2021/09/17 06:35:24;;;;;;;3.90;1.70;;;;;;;13.55;95.38;98258.70;237896;1197;22859;-79
2021/09/17 06:40:27;;;;;;;6.00;1.80;;;;;;;13.58;95.37;98261.29;237549;1190;25133;-87
2021/09/17 06:45:36;;;;;;;4.70;1.40;;;;;;;13.61;95.45;98262.55;237670;1191;24015;-80
2021/09/17 06:50:44;;;;;;;3.50;1.80;;;;;;;13.65;95.49;98261.52;237138;1197;24245;-79
2021/09/17 06:56:02;;;;;;;8.90;2.00;;;;;;;13.66;95.43;98262.47;237654;1197;23602;-83
2021/09/17 07:01:06;;;;;;;6.70;2.10;;;;;;;13.70;95.48;98259.70;238767;1193;22441;-79
2021/09/17 07:06:09;;;;;;;8.20;2.40;;;;;;;13.76;95.52;98258.48;238275;1191;22529;-77
2021/09/17 07:11:12;;;;;;;8.40;2.50;;;;;;;13.82;95.36;98256.69;238624;1197;22990;-79
2021/09/17 07:16:16;;;;;;;8.40;2.60;;;;;;;13.87;95.22;98256.31;237981;1196;22502;-78
2021/09/17 07:21:19;;;;;;;6.30;2.40;;;;;;;13.92;95.19;98255.83;237705;1197;22490;-81
2021/09/17 07:26:21;;;;;;;6.10;2.10;;;;;;;13.99;95.34;98255.96;238755;1190;22440;-81
2021/09/17 07:31:25;;;;;;;7.00;1.90;;;;;;;14.09;95.39;98256.73;238764;1197;24143;-81
2021/09/17 07:36:28;;;;;;;5.10;1.80;;;;;;;14.19;95.40;98260.16;239295;1190;22435;-81
2021/09/17 07:41:30;;;;;;;7.30;2.90;;;;;;;14.27;95.27;98262.90;238666;1190;22563;-80
2021/09/17 07:46:33;;;;;;;6.90;2.50;;;;;;;14.34;95.16;98272.18;238798;1197;24095;-79
2021/09/17 07:51:50;;;;;;;5.90;2.20;;;;;;;14.42;94.74;98277.18;238931;1190;25164;-80
2021/09/17 07:57:03;;;;;;;13.60;3.90;;;;;;;14.41;93.98;98275.68;239022;1197;25196;-80
2021/09/17 08:02:19;;;;;;;9.80;2.10;;;;;;;14.52;94.89;98278.20;238821;1190;22847;-79
2021/09/17 08:07:39;;;;;;;10.90;3.50;;;;;;;14.61;94.23;98282.02;238353;1197;26407;-79
2021/09/17 08:12:42;;;;;;;9.10;3.10;;;;;;;14.66;93.99;98284.06;237929;1197;25306;-79
2021/09/17 08:17:46;;;;;;;19.00;5.60;;;;;;;14.71;93.92;98281.02;237395;1190;24042;-81
2021/09/17 08:22:49;;;;;;;23.30;6.20;;;;;;;14.81;94.25;98282.61;238828;1197;25010;-79
2021/09/17 08:27:51;;;;;;;28.00;7.60;;;;;;;14.93;94.13;98284.90;237414;1197;22921;-79
2021/09/17 08:32:56;;;;;;;13.20;5.90;;;;;;;14.97;93.70;98286.30;239007;1197;22439;-79
2021/09/17 08:38:01;;;;;;;35.30;8.00;;;;;;;15.03;93.94;98288.60;237414;1197;24040;-79
2021/09/17 08:43:05;;;;;;;37.80;9.00;;;;;;;15.23;94.67;98284.98;237461;1183;24073;-79
2021/09/17 08:48:10;;;;;;;27.80;7.90;;;;;;;15.35;93.96;98288.16;238135;1197;22569;-79
2021/09/17 08:53:15;;;;;;;31.80;8.50;;;;;;;15.40;93.53;98286.66;237647;1197;22413;-79
2021/09/17 08:58:19;;;;;;;25.60;7.60;;;;;;;15.51;93.65;98288.34;239058;1197;22771;-80
2021/09/17 09:03:31;;;;;;;32.00;9.10;;;;;;;15.65;93.62;98291.21;237910;1190;22926;-80
2021/09/17 09:08:34;;;;;;;35.90;10.20;;;;;;;15.79;93.00;98289.39;237137;1184;22486;-79
2021/09/17 09:13:56;;;;;;;40.80;11.00;;;;;;;15.80;92.49;98286.72;236976;1190;22471;-83
2021/09/17 09:19:29;;;;;;;46.30;11.30;;;;;;;15.73;92.16;98294.58;237392;1197;22472;-79
2021/09/17 09:24:39;;;;;;;42.10;11.50;;;;;;;15.85;92.60;98288.45;237689;1197;22555;-79
2021/09/17 09:29:47;;;;;;;33.70;11.20;;;;;;;16.09;92.22;98288.23;238014;1195;22437;-78
2021/09/17 09:34:56;;;;;;;37.30;10.50;;;;;;;16.35;92.26;98285.35;239284;1197;22436;-81
2021/09/17 09:40:00;;;;;;;49.20;9.80;;;;;;;16.59;91.52;98282.59;239444;1197;24041;-80
2021/09/17 09:45:31;;;;;;;28.70;8.20;;;;;;;16.71;90.87;98276.23;239489;1190;22431;-80
2021/09/17 09:50:34;;;;;;;25.80;7.80;;;;;;;16.75;90.16;98278.58;238659;1198;22750;-81
2021/09/17 09:55:38;;;;;;;19.30;7.30;;;;;;;16.71;89.78;98279.32;238011;1197;22456;-81
2021/09/17 10:00:42;;;;;;;27.00;8.70;;;;;;;16.75;89.91;98274.80;237328;1198;24085;-77
2021/09/17 10:05:45;;;;;;;22.40;7.50;;;;;;;16.89;90.13;98279.09;236501;1190;22462;-78
2021/09/17 10:10:49;;;;;;;13.30;5.00;;;;;;;16.93;89.69;98276.84;236384;1193;24165;-77
2021/09/17 10:15:52;;;;;;;18.00;6.50;;;;;;;17.08;89.87;98269.11;236417;1190;22527;-79
2021/09/17 10:20:55;;;;;;;29.00;7.60;;;;;;;17.26;89.39;98263.11;236103;1194;24104;-78
2021/09/17 10:26:11;;;;;;;22.70;7.20;;;;;;;17.44;89.23;98264.23;236116;1194;22439;-77
2021/09/17 10:31:16;;;;;;;19.40;6.70;;;;;;;17.48;88.01;98260.31;236273;1197;22466;-76
2021/09/17 10:36:42;;;;;;;29.10;8.00;;;;;;;17.49;87.60;98252.27;236454;1190;26278;-78
2021/09/17 10:42:06;;;;;;;17.40;5.50;;;;;;;17.63;87.75;98248.00;237420;1190;25216;-77
2021/09/17 10:47:44;;;;;;;29.30;9.10;;;;;;;17.76;86.55;98245.70;236533;1197;23786;-77
2021/09/17 10:52:48;;;;;;;16.90;6.80;;;;;;;17.81;85.90;98244.34;236261;1197;24037;-77
2021/09/17 10:58:20;;;;;;;17.20;8.20;;;;;;;17.95;86.43;98239.30;236377;1197;24054;-76
2021/09/17 11:03:43;;;;;;;21.20;8.20;;;;;;;18.10;86.35;98235.08;236120;1193;24275;-78
2021/09/17 11:09:03;;;;;;;18.00;6.90;;;;;;;18.17;86.04;98229.59;236189;1190;24168;-77
2021/09/17 11:14:11;;;;;;;31.90;8.70;;;;;;;18.30;85.83;98235.07;236107;1197;22452;-78
2021/09/17 11:19:23;;;;;;;14.60;5.00;;;;;;;18.42;85.09;98235.58;236199;1190;23959;-76
2021/09/17 11:24:28;;;;;;;14.50;5.80;;;;;;;18.40;84.72;98233.91;236415;1197;25052;-77
2021/09/17 11:29:31;;;;;;;18.90;5.80;;;;;;;18.49;85.17;98226.03;236489;1197;24062;-77
2021/09/17 11:34:34;;;;;;;18.40;5.50;;;;;;;18.70;85.19;98226.48;237038;1190;24111;-77
2021/09/17 11:39:51;;;;;;;10.70;3.30;;;;;;;18.72;83.72;98228.00;236319;1190;24593;-76
2021/09/17 11:44:55;;;;;;;7.20;3.00;;;;;;;18.46;82.68;98238.27;236538;1198;22655;-76
2021/09/17 11:50:09;;;;;;;6.00;3.10;;;;;;;17.80;81.96;98238.59;236462;1197;24096;-77
2021/09/17 11:55:20;;;;;;;10.80;3.90;;;;;;;17.27;82.46;98238.00;236553;1193;22500;-77
2021/09/17 12:00:26;;;;;;;8.10;3.80;;;;;;;16.97;83.12;98234.70;236677;1191;22450;-78
2021/09/17 12:05:48;;;;;;;8.30;3.80;;;;;;;16.78;83.75;98238.02;236806;1197;25011;-76
2021/09/17 12:11:00;;;;;;;13.60;4.50;;;;;;;16.82;84.54;98237.05;236537;1197;22436;-78
2021/09/17 12:16:09;;;;;;;16.30;5.10;;;;;;;17.06;84.74;98237.12;237133;1190;22471;-79
2021/09/17 12:21:20;;;;;;;14.10;5.10;;;;;;;17.24;84.28;98242.96;236494;1197;22473;-78
2021/09/17 12:26:59;;;;;;;14.60;6.40;;;;;;;17.48;84.24;98246.05;236861;1190;22614;-78
2021/09/17 12:32:15;;;;;;;14.10;4.70;;;;;;;17.65;83.80;98246.05;236970;1190;24068;-77
2021/09/17 12:37:23;;;;;;;13.60;4.90;;;;;;;17.79;83.31;98243.29;236418;1197;22959;-78
2021/09/17 12:42:26;;;;;;;13.50;4.70;;;;;;;17.89;83.19;98249.59;238007;1197;22455;-78
2021/09/17 12:47:29;;;;;;;9.90;4.80;;;;;;;17.85;82.23;98248.69;236962;1190;26425;-81
2021/09/17 12:52:33;;;;;;;9.80;4.10;;;;;;;17.66;81.50;98252.23;236932;1197;23815;-77
2021/09/17 12:57:36;;;;;;;8.40;3.50;;;;;;;17.45;81.07;98252.31;236450;1197;24026;-78
2021/09/17 13:02:40;;;;;;;7.60;3.40;;;;;;;17.31;81.15;98251.41;239736;1197;22537;-79
2021/09/17 13:07:43;;;;;;;8.60;3.00;;;;;;;17.35;81.50;98237.84;236553;1197;22531;-77
2021/09/17 13:12:46;;;;;;;10.30;3.90;;;;;;;17.57;81.96;98239.17;236917;1197;22471;-79
2021/09/17 13:18:04;;;;;;;13.70;4.70;;;;;;;17.76;81.34;98239.10;236900;1190;24061;-79
2021/09/17 13:23:09;;;;;;;9.80;3.80;;;;;;;17.78;80.77;98237.84;236687;1197;22474;-77
2021/09/17 13:28:12;;;;;;;8.70;4.10;;;;;;;17.82;80.59;98236.16;236892;1193;22422;-82
2021/09/17 13:33:16;;;;;;;8.30;3.40;;;;;;;17.82;80.11;98233.35;237653;1190;24562;-85
2021/09/17 13:38:21;;;;;;;5.50;3.20;;;;;;;17.78;80.22;98236.30;237483;1190;24141;-79
2021/09/17 13:43:24;;;;;;;9.20;3.20;;;;;;;17.82;80.21;98236.85;237160;1197;22886;-81
2021/09/17 13:48:27;;;;;;;7.90;3.60;;;;;;;17.90;80.12;98236.52;237716;1197;25194;-81
2021/09/17 13:53:30;;;;;;;8.40;3.20;;;;;;;17.90;79.77;98233.13;238712;1196;24008;-80
2021/09/17 13:58:33;;;;;;;4.30;2.40;;;;;;;17.83;79.47;98231.77;239187;1190;22858;-79
2021/09/17 14:03:35;;;;;;;11.20;2.90;;;;;;;17.69;79.22;98226.63;237746;1190;22442;-79
2021/09/17 14:08:39;;;;;;;8.30;2.90;;;;;;;17.54;78.98;98219.75;238363;1194;27119;-80
2021/09/17 14:13:42;;;;;;;8.40;3.00;;;;;;;17.46;78.93;98219.48;238193;1197;22464;-80
2021/09/17 14:18:45;;;;;;;5.10;3.10;;;;;;;17.44;79.24;98213.24;238742;1198;22437;-79
2021/09/17 14:23:48;;;;;;;11.20;4.40;;;;;;;17.49;79.26;98209.73;239223;1197;22450;-80
2021/09/17 14:28:50;;;;;;;7.60;3.20;;;;;;;17.56;79.26;98213.63;238812;1190;22562;-80
2021/09/17 14:33:53;;;;;;;6.70;3.00;;;;;;;17.58;79.20;98211.27;238114;1190;24233;-80
2021/09/17 14:38:56;;;;;;;12.50;3.60;;;;;;;17.53;79.09;98206.98;237579;1193;24031;-78
2021/09/17 14:43:59;;;;;;;6.30;3.30;;;;;;;17.48;78.94;98209.41;238005;1197;23989;-80
2021/09/17 14:49:03;;;;;;;11.00;3.10;;;;;;;17.41;78.93;98211.14;237634;1197;23094;-81
2021/09/17 14:54:08;;;;;;;11.40;3.70;;;;;;;17.40;79.14;98216.30;238039;1197;25000;-80
2021/09/17 14:59:11;;;;;;;10.30;4.60;;;;;;;17.44;79.32;98213.93;238830;1197;22458;-78
2021/09/17 15:04:28;;;;;;;9.30;4.00;;;;;;;17.42;79.26;98213.96;237935;1190;22473;-80
2021/09/17 15:09:46;;;;;;;5.60;3.30;;;;;;;17.36;79.24;98212.64;237338;1190;22462;-78
2021/09/17 15:14:49;;;;;;;8.90;3.90;;;;;;;17.23;79.33;98224.90;237837;1198;25204;-80
2021/09/17 15:19:52;;;;;;;2.80;1.70;;;;;;;16.85;79.14;98230.89;236866;1198;25203;-80
2021/09/17 15:24:56;;;;;;;1.60;1.00;;;;;;;16.26;79.11;98230.38;236975;1198;23976;-80
2021/09/17 15:29:59;;;;;;;2.50;1.20;;;;;;;15.79;79.72;98233.77;236854;1197;24094;-83
2021/09/17 15:35:03;;;;;;;4.10;1.50;;;;;;;15.53;80.19;98233.66;238022;1197;24059;-78
2021/09/17 15:40:19;;;;;;;6.80;1.40;;;;;;;15.36;80.66;98232.09;237016;1190;22442;-80
2021/09/17 15:45:42;;;;;;;3.90;1.40;;;;;;;15.32;81.09;98236.03;237096;1190;24260;-79
2021/09/17 15:50:45;;;;;;;3.20;1.50;;;;;;;15.35;81.48;98229.20;236856;1197;22440;-88
2021/09/17 15:55:48;;;;;;;5.90;2.00;;;;;;;15.37;81.69;98231.44;237034;1193;25248;-79
2021/09/17 16:01:02;;;;;;;6.00;2.00;;;;;;;15.40;81.81;98243.38;236841;1176;22419;-80
2021/09/17 16:06:25;;;;;;;3.70;1.80;;;;;;;15.39;82.02;98247.52;236796;1174;24031;-83
2021/09/17 16:11:29;;;;;;;6.60;1.90;;;;;;;15.33;82.18;98248.50;237101;1197;22567;-78
2021/09/17 16:16:34;;;;;;;6.50;1.60;;;;;;;15.36;82.66;98249.59;237011;1197;24020;-80
2021/09/17 16:21:38;;;;;;;9.10;3.00;;;;;;;15.39;83.02;98250.00;237042;1197;22476;-79
2021/09/17 16:26:42;;;;;;;8.20;2.40;;;;;;;15.41;83.22;98253.47;236961;1192;24133;-79
2021/09/17 16:31:45;;;;;;;5.40;1.90;;;;;;;15.40;83.41;98254.31;236872;1198;24141;-80
2021/09/17 16:36:49;;;;;;;7.70;3.70;;;;;;;15.37;83.45;98257.55;237030;1195;25675;-80
2021/09/17 16:41:52;;;;;;;9.20;2.90;;;;;;;15.37;84.01;98261.26;237186;1198;22856;-79
2021/09/17 16:46:58;;;;;;;10.20;3.00;;;;;;;15.38;84.25;98264.94;237333;1193;24010;-79
2021/09/17 16:52:04;;;;;;;6.50;2.10;;;;;;;15.31;84.09;98264.52;237323;1197;25218;-80
2021/09/17 16:57:07;;;;;;;4.70;1.80;;;;;;;15.17;83.77;98263.10;237232;1192;25291;-79
2021/09/17 17:02:12;;;;;;;2.60;1.80;;;;;;;15.00;83.83;98253.43;237105;1197;22464;-81
2021/09/17 17:07:16;;;;;;;2.50;1.30;;;;;;;14.90;83.87;98248.34;238225;1193;22443;-79
2021/09/17 17:12:20;;;;;;;2.80;1.40;;;;;;;14.80;83.88;98244.83;236798;1192;22446;-78
2021/09/17 17:17:24;;;;;;;2.80;1.40;;;;;;;14.74;84.01;98246.14;236607;1190;24163;-77
2021/09/17 17:22:27;;;;;;;5.10;2.00;;;;;;;14.69;83.92;98254.52;237213;1193;22438;-80
2021/09/17 17:27:31;;;;;;;2.40;1.40;;;;;;;14.63;83.97;98265.43;236891;1197;22551;-77
2021/09/17 17:32:35;;;;;;;4.10;2.20;;;;;;;14.55;83.96;98276.68;237623;1196;24172;-80
2021/09/17 17:37:41;;;;;;;2.50;1.00;;;;;;;14.45;84.02;98277.22;237300;1197;22472;-79
2021/09/17 17:42:45;;;;;;;3.50;1.40;;;;;;;14.39;84.26;98280.31;237387;1197;24573;-78
2021/09/17 17:47:50;;;;;;;2.50;1.30;;;;;;;14.37;84.41;98283.85;237183;1197;24088;-81
2021/09/17 17:52:53;;;;;;;4.20;1.00;;;;;;;14.36;84.48;98285.45;237992;1198;24136;-82
2021/09/17 17:57:57;;;;;;;5.30;1.90;;;;;;;14.35;84.61;98285.23;237188;1198;24061;-81
2021/09/17 18:03:02;;;;;;;3.10;1.50;;;;;;;14.36;84.71;98287.45;236934;1193;22443;-78
2021/09/17 18:08:19;;;;;;;8.60;1.90;;;;;;;14.36;84.61;98290.67;237068;1190;24075;-80
2021/09/17 18:13:42;;;;;;;6.90;2.00;;;;;;;14.36;84.78;98295.98;237357;1198;23987;-79
2021/09/17 18:18:47;;;;;;;6.20;2.40;;;;;;;14.35;84.84;98297.36;237952;1198;22495;-80
2021/09/17 18:24:04;;;;;;;6.50;2.50;;;;;;;14.33;84.92;98294.62;236951;1198;22455;-81
2021/09/17 18:29:20;;;;;;;6.60;2.20;;;;;;;14.30;84.95;98296.42;237294;1198;24046;-80
2021/09/17 18:34:24;;;;;;;21.60;9.30;;;;;;;14.29;85.18;98298.32;237561;1192;22577;-79
2021/09/17 18:39:28;;;;;;;4.20;2.60;;;;;;;14.27;85.05;98296.39;238418;1198;25016;-81
2021/09/17 18:44:31;;;;;;;8.80;3.40;;;;;;;14.27;85.27;98300.01;237846;1198;22552;-79
2021/09/17 18:49:39;;;;;;;7.30;2.10;;;;;;;14.28;85.27;98303.59;237569;1197;22529;-79
2021/09/17 18:54:55;;;;;;;;;;;;;;;14.20;84.97;98300.74;237768;1197;26409;-80
2021/09/17 19:00:03;;;;;;;9.30;3.30;;;;;;;14.15;85.30;98303.55;237675;1197;25160;-79
2021/09/17 19:05:08;;;;;;;8.60;3.30;;;;;;;14.15;85.53;98307.05;237361;1197;25201;-78
2021/09/17 19:10:13;;;;;;;8.50;2.70;;;;;;;14.19;85.77;98307.78;237392;1197;22449;-80
2021/09/17 19:15:19;;;;;;;7.80;3.50;;;;;;;14.20;85.69;98307.59;237835;1197;24037;-79
2021/09/17 19:20:23;;;;;;;8.00;3.20;;;;;;;14.28;86.12;98306.98;237797;1190;24078;-80
2021/09/17 19:25:30;;;;;;;8.30;3.40;;;;;;;14.32;85.99;98309.75;237465;1190;24177;-79
2021/09/17 19:30:37;;;;;;;13.60;3.50;;;;;;;14.34;85.99;98312.05;238362;1198;22440;-79
2021/09/17 19:35:41;;;;;;;8.10;3.40;;;;;;;14.29;85.59;98312.39;237297;1198;24051;-81
2021/09/17 19:40:44;;;;;;;6.60;2.90;;;;;;;14.26;85.91;98311.52;237800;1198;24181;-79
2021/09/17 19:45:47;;;;;;;10.50;2.60;;;;;;;14.27;86.02;98308.38;237327;1198;25237;-80
2021/09/17 19:50:52;;;;;;;5.60;2.40;;;;;;;14.24;86.13;98309.49;237002;1190;24054;-79
2021/09/17 19:56:08;;;;;;;11.10;3.00;;;;;;;14.21;86.22;98315.38;237319;1198;25320;-82
2021/09/17 20:01:15;;;;;;;6.30;2.90;;;;;;;14.13;86.26;98317.02;236940;1198;22517;-78
2021/09/17 20:06:21;;;;;;;6.80;2.50;;;;;;;14.06;86.29;98314.33;236589;1192;22500;-77
2021/09/17 20:11:24;;;;;;;7.20;2.50;;;;;;;14.01;86.55;98312.60;237121;1197;22445;-79
2021/09/17 20:16:28;;;;;;;9.40;2.60;;;;;;;14.02;86.79;98317.48;236771;1183;25816;-79
2021/09/17 20:21:45;;;;;;;8.30;2.90;;;;;;;14.06;87.04;98311.86;236890;1197;24048;-82
2021/09/17 20:27:02;;;;;;;7.00;3.20;;;;;;;14.08;86.85;98317.54;236706;1197;24055;-79
2021/09/17 20:32:06;;;;;;;6.70;2.70;;;;;;;14.06;87.00;98319.02;236851;1198;22474;-79
2021/09/17 20:37:10;;;;;;;8.20;3.10;;;;;;;14.06;87.04;98318.64;236474;1193;25382;-78
2021/09/17 20:42:13;;;;;;;6.90;2.80;;;;;;;14.04;86.90;98321.77;236935;1198;22442;-79
2021/09/17 20:47:16;;;;;;;6.30;2.90;;;;;;;13.98;87.03;98319.48;236870;1198;24051;-82
2021/09/17 20:52:21;;;;;;;6.80;3.00;;;;;;;13.97;86.88;98316.66;236770;1191;22408;-78
2021/09/17 20:57:24;;;;;;;5.90;2.30;;;;;;;13.91;86.72;98319.34;236883;1198;24076;-80
2021/09/17 21:02:28;;;;;;;5.50;2.80;;;;;;;13.86;86.92;98321.50;237182;1198;22466;-77
2021/09/17 21:07:30;;;;;;;3.80;2.10;;;;;;;13.81;86.83;98319.91;237236;1198;23954;-80
2021/09/17 21:12:40;;;;;;;5.50;2.20;;;;;;;13.70;86.85;98322.04;236784;1198;22926;-81
2021/09/17 21:18:03;;;;;;;4.90;2.10;;;;;;;13.61;86.86;98319.25;237017;1198;22463;-84
2021/09/17 21:23:06;;;;;;;4.90;2.00;;;;;;;13.53;87.02;98324.20;237151;1198;25183;-78
2021/09/17 21:28:15;;;;;;;3.90;1.80;;;;;;;13.48;87.13;98322.94;237053;1197;22455;-80
2021/09/17 21:33:18;;;;;;;5.30;2.10;;;;;;;13.44;87.24;98319.21;237259;1197;22869;-80
2021/09/17 21:38:21;;;;;;;3.70;1.80;;;;;;;13.41;87.21;98319.00;237242;1197;22466;-81
2021/09/17 21:43:26;;;;;;;5.30;2.00;;;;;;;13.39;87.37;98319.00;237141;1197;24172;-80
2021/09/17 21:48:29;;;;;;;5.60;2.80;;;;;;;13.37;87.23;98315.23;237039;1197;24111;-79
2021/09/17 21:53:32;;;;;;;3.40;1.80;;;;;;;13.35;87.31;98315.73;236761;1198;24021;-78
2021/09/17 21:58:34;;;;;;;4.50;2.60;;;;;;;13.33;87.41;98315.27;236763;1198;24044;-78
2021/09/17 22:03:38;;;;;;;5.70;2.10;;;;;;;13.36;87.61;98314.77;237321;1197;24664;-81
2021/09/17 22:09:01;;;;;;;;;;;;;;;13.38;87.52;98312.96;237122;1197;22547;-80
2021/09/17 22:14:30;;;;;;;4.00;1.80;;;;;;;13.39;87.77;98308.94;236676;1197;22543;-80
2021/09/17 22:19:36;;;;;;;4.30;1.90;;;;;;;13.36;87.48;98302.88;236790;1197;22584;-79
2021/09/17 22:24:39;;;;;;;3.00;2.20;;;;;;;13.32;87.64;98304.50;236758;1190;25078;-79
2021/09/17 22:29:41;;;;;;;6.30;2.20;;;;;;;13.29;87.68;98296.31;236963;1197;23412;-79
2021/09/17 22:34:44;;;;;;;7.80;2.10;;;;;;;13.28;87.70;98298.95;236696;1190;25260;-79
2021/09/17 22:39:52;;;;;;;7.70;2.20;;;;;;;13.27;87.67;98297.07;236389;1192;26294;-80
2021/09/17 22:44:54;;;;;;;6.00;2.70;;;;;;;13.29;87.69;98294.70;236922;1198;23979;-78
2021/09/17 22:49:57;;;;;;;5.40;2.40;;;;;;;13.29;87.68;98296.21;236627;1198;24085;-79
2021/09/17 22:55:00;;;;;;;5.70;2.60;;;;;;;13.27;87.66;98293.25;236722;1192;23973;-79
2021/09/17 23:00:09;;;;;;;6.10;3.00;;;;;;;13.29;87.93;98294.16;236947;1197;24022;-79
2021/09/17 23:05:13;;;;;;;6.90;2.80;;;;;;;13.32;88.00;98290.14;236554;1197;22497;-77
2021/09/17 23:10:16;;;;;;;6.70;2.50;;;;;;;13.34;88.04;98284.91;236925;1190;24088;-78
2021/09/17 23:15:20;;;;;;;3.90;2.10;;;;;;;13.33;87.95;98289.59;236882;1197;25156;-78
2021/09/17 23:20:23;;;;;;;5.80;2.50;;;;;;;13.31;88.00;98293.75;236785;1190;24083;-77
2021/09/17 23:25:27;;;;;;;4.50;2.30;;;;;;;13.33;87.89;98296.19;236661;1197;24085;-79
2021/09/17 23:30:29;;;;;;;8.00;2.20;;;;;;;13.36;88.05;98296.55;236505;1197;24067;-80
2021/09/17 23:35:32;;;;;;;8.70;2.50;;;;;;;13.39;88.03;98297.76;236845;1197;24120;-80
2021/09/17 23:40:35;;;;;;;8.20;2.40;;;;;;;13.40;87.94;98302.02;236620;1191;25013;-83